createdAt,value
2023-04-16T00:02:08.062Z,34.13
2023-04-16T00:04:35.401Z,34.03
2023-04-16T00:07:02.463Z,33.77
2023-04-16T00:09:30.776Z,34.73
2023-04-16T00:11:57.655Z,33.53
2023-04-16T00:14:27.060Z,35.00
2023-04-16T00:16:54.179Z,33.90
2023-04-16T00:19:21.080Z,34.40
2023-04-16T00:21:48.524Z,35.23
2023-04-16T00:24:16.231Z,34.00
2023-04-16T00:26:45.300Z,35.27
2023-04-16T00:29:12.769Z,35.13
2023-04-16T00:31:42.893Z,33.93
2023-04-16T00:34:09.859Z,34.33
2023-04-16T00:36:36.737Z,34.87
2023-04-16T00:39:07.244Z,34.43
2023-04-16T00:41:34.321Z,33.53
2023-04-16T00:44:01.475Z,34.37
2023-04-16T00:46:28.580Z,34.40
2023-04-16T00:48:56.473Z,35.47
2023-04-16T00:51:26.826Z,35.47
2023-04-16T00:53:54.076Z,34.67
2023-04-16T00:56:24.291Z,35.93
2023-04-16T00:58:51.208Z,37.83
2023-04-16T01:01:18.371Z,35.70
2023-04-16T01:03:47.505Z,35.03
2023-04-16T01:06:15.425Z,35.47
2023-04-16T01:08:42.694Z,37.07
2023-04-16T01:11:11.397Z,35.53
2023-04-16T01:13:39.722Z,35.60
2023-04-16T01:16:11.634Z,36.10
2023-04-16T01:18:38.928Z,35.73
2023-04-16T01:21:06.101Z,35.27
2023-04-16T01:23:33.673Z,34.83
2023-04-16T01:26:00.616Z,34.50
2023-04-16T01:28:27.780Z,34.97
2023-04-16T01:30:54.853Z,35.67
2023-04-16T01:33:22.353Z,36.73
2023-04-16T01:35:49.321Z,37.20
2023-04-16T01:38:16.745Z,35.17
2023-04-16T01:40:43.799Z,36.07
2023-04-16T01:43:10.756Z,36.30
2023-04-16T01:45:38.057Z,35.00
2023-04-16T01:48:05.365Z,36.00
2023-04-16T01:50:32.362Z,35.13
2023-04-16T01:52:59.470Z,35.40
2023-04-16T01:55:27.000Z,36.93
2023-04-16T01:57:53.803Z,34.63
2023-04-16T02:00:21.082Z,34.23
2023-04-16T02:02:49.548Z,34.00
2023-04-16T02:05:16.555Z,35.07
2023-04-16T02:07:45.786Z,35.13
2023-04-16T02:10:15.692Z,34.47
2023-04-16T02:12:42.755Z,34.73
2023-04-16T02:15:10.287Z,34.83
2023-04-16T02:17:37.033Z,33.53
2023-04-16T02:20:06.501Z,32.43
2023-04-16T02:22:33.510Z,32.67
2023-04-16T02:25:00.478Z,33.20
2023-04-16T02:27:27.361Z,33.97
2023-04-16T02:29:54.322Z,32.97
2023-04-16T02:32:22.327Z,32.70
2023-04-16T02:34:49.504Z,34.23
2023-04-16T02:37:16.565Z,33.20
2023-04-16T02:39:43.911Z,33.57
2023-04-16T02:42:10.693Z,31.63
2023-04-16T02:44:37.679Z,33.47
2023-04-16T02:47:04.475Z,31.63
2023-04-16T02:49:31.340Z,30.87
2023-04-16T02:51:58.332Z,30.43
2023-04-16T02:54:25.174Z,30.70
2023-04-16T02:56:53.883Z,30.70
2023-04-16T02:59:20.882Z,31.07
2023-04-16T03:01:47.826Z,31.60
2023-04-16T03:04:15.057Z,31.30
2023-04-16T03:06:41.970Z,31.13
2023-04-16T03:09:08.960Z,33.57
2023-04-16T03:11:36.142Z,31.43
2023-04-16T03:14:02.957Z,30.13
2023-04-16T03:16:30.063Z,30.73
2023-04-16T03:18:57.015Z,33.47
2023-04-16T03:21:23.865Z,31.43
2023-04-16T03:23:50.666Z,31.80
2023-04-16T03:26:17.736Z,32.77
2023-04-16T03:28:44.810Z,31.87
2023-04-16T03:31:11.734Z,33.07
2023-04-16T03:33:38.767Z,32.73
2023-04-16T03:36:05.986Z,32.57
2023-04-16T03:38:32.773Z,32.40
2023-04-16T03:40:59.768Z,31.77
2023-04-16T03:43:26.577Z,34.07
2023-04-16T03:45:53.305Z,32.13
2023-04-16T03:48:20.858Z,33.93
2023-04-16T03:50:48.194Z,33.60
2023-04-16T03:53:15.493Z,34.30
2023-04-16T03:55:43.110Z,31.83
2023-04-16T03:58:10.233Z,32.23
2023-04-16T04:00:37.416Z,36.27
2023-04-16T04:03:04.621Z,32.67
2023-04-16T04:05:31.488Z,32.10
2023-04-16T04:07:58.266Z,31.80
2023-04-16T04:10:25.662Z,32.07
2023-04-16T04:12:52.428Z,31.03
2023-04-16T04:15:19.345Z,30.67
2023-04-16T04:17:46.493Z,32.90
2023-04-16T04:20:13.414Z,31.83
2023-04-16T04:22:40.221Z,31.13
2023-04-16T04:25:08.713Z,30.60
2023-04-16T04:27:35.635Z,31.30
2023-04-16T04:30:04.890Z,31.60
2023-04-16T04:32:32.119Z,31.13
2023-04-16T04:35:02.064Z,31.10
2023-04-16T04:37:28.986Z,31.87
2023-04-16T04:39:56.021Z,32.63
2023-04-16T04:42:22.857Z,32.13
2023-04-16T04:44:49.639Z,31.17
2023-04-16T04:47:16.858Z,31.73
2023-04-16T04:49:43.577Z,32.60
2023-04-16T04:52:11.706Z,30.63
2023-04-16T04:54:41.825Z,33.10
2023-04-16T04:57:08.926Z,32.17
2023-04-16T04:59:36.334Z,31.77
2023-04-16T05:02:03.677Z,32.07
2023-04-16T05:04:31.376Z,31.40
2023-04-16T05:06:58.609Z,31.47
2023-04-16T05:09:25.626Z,29.07
2023-04-16T05:11:53.001Z,31.67
2023-04-16T05:14:20.044Z,32.97
2023-04-16T05:16:47.045Z,31.30
2023-04-16T05:19:13.803Z,32.63
2023-04-16T05:21:40.664Z,32.20
2023-04-16T05:24:07.660Z,33.43
2023-04-16T05:26:34.433Z,31.33
2023-04-16T05:29:01.273Z,32.07
2023-04-16T05:31:28.610Z,31.70
2023-04-16T05:33:55.665Z,32.83
2023-04-16T05:36:22.655Z,33.23
2023-04-16T05:38:49.667Z,33.03
2023-04-16T05:41:16.414Z,32.93
2023-04-16T05:43:43.200Z,32.47
2023-04-16T05:46:13.705Z,33.53
2023-04-16T05:48:40.574Z,33.37
2023-04-16T05:51:07.385Z,31.67
2023-04-16T05:53:34.340Z,32.40
2023-04-16T05:56:03.217Z,33.03
2023-04-16T05:58:30.015Z,33.27
2023-04-16T06:00:57.114Z,33.30
2023-04-16T06:03:24.374Z,31.20
2023-04-16T06:05:51.770Z,30.83
2023-04-16T06:08:18.880Z,31.23
2023-04-16T06:10:47.590Z,30.77
2023-04-16T06:13:14.654Z,34.03
2023-04-16T06:15:41.595Z,32.63
2023-04-16T06:18:08.436Z,31.57
2023-04-16T06:20:35.668Z,33.73
2023-04-16T06:23:02.708Z,34.00
2023-04-16T06:25:29.842Z,33.73
2023-04-16T06:27:56.673Z,34.40
2023-04-16T06:30:23.716Z,35.13
2023-04-16T06:32:50.643Z,32.07
2023-04-16T06:35:20.078Z,32.40
2023-04-16T06:37:47.788Z,29.83
2023-04-16T06:40:14.730Z,32.97
2023-04-16T06:42:43.575Z,33.47
2023-04-16T06:45:12.716Z,30.27
2023-04-16T06:47:39.838Z,31.80
2023-04-16T06:50:07.341Z,29.03
2023-04-16T06:52:34.354Z,31.47
2023-04-16T06:55:01.921Z,28.93
2023-04-16T06:57:28.788Z,28.93
2023-04-16T06:59:55.731Z,26.63
2023-04-16T07:02:24.336Z,25.93
2023-04-16T07:04:52.392Z,26.23
2023-04-16T07:07:19.423Z,26.63
2023-04-16T07:09:46.191Z,25.83
2023-04-16T07:12:13.395Z,25.00
2023-04-16T07:14:40.471Z,26.83
2023-04-16T07:17:07.195Z,25.77
2023-04-16T07:19:34.421Z,25.97
2023-04-16T07:22:01.696Z,26.10
2023-04-16T07:24:28.998Z,24.47
2023-04-16T07:26:55.864Z,25.90
2023-04-16T07:29:22.879Z,24.70
2023-04-16T07:31:55.581Z,26.27
2023-04-16T07:34:22.448Z,25.23
2023-04-16T07:36:49.495Z,24.67
2023-04-16T07:39:16.406Z,25.20
2023-04-16T07:41:43.990Z,25.93
2023-04-16T07:44:11.008Z,23.73
2023-04-16T07:46:46.266Z,23.73
2023-04-16T07:49:15.005Z,25.23
2023-04-16T07:51:41.971Z,24.23
2023-04-16T07:54:08.711Z,22.73
2023-04-16T07:56:36.260Z,23.30
2023-04-16T07:59:18.397Z,24.87
2023-04-16T08:01:46.227Z,23.17
2023-04-16T08:04:14.269Z,23.00
2023-04-16T08:06:41.303Z,22.37
2023-04-16T08:09:08.553Z,23.90
2023-04-16T08:11:35.440Z,21.20
2023-04-16T08:14:02.349Z,23.00
2023-04-16T08:16:29.346Z,22.97
2023-04-16T08:18:56.431Z,22.93
2023-04-16T08:21:23.220Z,22.53
2023-04-16T08:23:50.173Z,24.23
2023-04-16T08:26:17.733Z,23.33
2023-04-16T08:28:44.531Z,23.60
2023-04-16T08:31:11.749Z,24.00
2023-04-16T08:33:38.551Z,24.27
2023-04-16T08:36:05.653Z,22.70
2023-04-16T08:38:32.612Z,23.37
2023-04-16T08:41:03.752Z,23.30
2023-04-16T08:43:34.298Z,22.33
2023-04-16T08:46:01.809Z,23.80
2023-04-16T08:48:34.464Z,24.33
2023-04-16T08:51:04.204Z,23.57
2023-04-16T08:53:43.369Z,23.87
2023-04-16T08:56:11.788Z,22.93
2023-04-16T08:58:40.359Z,24.30
2023-04-16T09:01:12.952Z,22.53
2023-04-16T09:03:41.376Z,23.20
2023-04-16T09:06:09.883Z,22.63
2023-04-16T09:08:38.285Z,22.93
2023-04-16T09:11:05.961Z,22.97
2023-04-16T09:13:32.933Z,21.57
2023-04-16T09:16:00.505Z,22.03
2023-04-16T09:18:28.452Z,21.13
2023-04-16T09:20:57.109Z,22.40
2023-04-16T09:23:25.291Z,20.53
2023-04-16T09:25:52.080Z,22.00
2023-04-16T09:28:46.651Z,21.47
2023-04-16T09:31:15.281Z,20.70
2023-04-16T09:33:43.621Z,21.63
2023-04-16T09:36:11.422Z,21.93
2023-04-16T09:38:56.293Z,21.03
2023-04-16T09:41:31.980Z,20.97
2023-04-16T09:44:01.984Z,21.83
2023-04-16T09:46:35.649Z,21.30
2023-04-16T09:49:16.386Z,20.83
2023-04-16T09:51:45.284Z,20.53
2023-04-16T09:54:12.238Z,22.07
2023-04-16T09:56:44.077Z,21.27
2023-04-16T09:59:18.763Z,21.60
2023-04-16T10:01:50.065Z,20.50
2023-04-16T10:04:17.585Z,18.87
2023-04-16T10:06:47.101Z,20.40
2023-04-16T10:09:14.555Z,19.97
2023-04-16T10:11:41.607Z,19.10
2023-04-16T10:14:08.933Z,19.47
2023-04-16T10:16:38.559Z,19.93
2023-04-16T10:19:05.818Z,19.27
2023-04-16T10:21:34.240Z,18.83
2023-04-16T10:24:02.072Z,19.33
2023-04-16T10:26:31.255Z,18.40
2023-04-16T10:28:59.663Z,18.67
2023-04-16T10:31:28.027Z,18.13
2023-04-16T10:33:56.607Z,16.93
2023-04-16T10:36:24.935Z,17.13
2023-04-16T10:38:59.863Z,17.80
2023-04-16T10:41:27.137Z,18.77
2023-04-16T10:44:04.601Z,17.63
2023-04-16T10:46:36.705Z,17.30
2023-04-16T10:49:18.255Z,17.70
2023-04-16T10:51:59.720Z,18.67
2023-04-16T10:54:31.134Z,18.50
2023-04-16T10:57:00.785Z,19.30
2023-04-16T10:59:35.452Z,18.43
2023-04-16T11:02:09.808Z,19.73
2023-04-16T11:04:38.860Z,19.30
2023-04-16T11:07:15.610Z,19.27
2023-04-16T11:09:52.050Z,20.13
2023-04-16T11:12:40.631Z,21.50
2023-04-16T11:15:08.991Z,22.67
2023-04-16T11:17:44.343Z,23.23
2023-04-16T11:20:23.217Z,24.30
2023-04-16T11:22:51.584Z,23.70
2023-04-16T11:25:24.778Z,24.13
2023-04-16T11:27:52.596Z,23.47
2023-04-16T11:30:28.740Z,23.13
2023-04-16T11:32:55.835Z,23.93
2023-04-16T11:35:22.798Z,23.47
2023-04-16T11:37:49.984Z,22.90
2023-04-16T11:40:16.967Z,22.37
2023-04-16T11:42:44.896Z,24.70
2023-04-16T11:45:12.770Z,23.60
2023-04-16T11:47:52.812Z,23.47
2023-04-16T11:50:25.107Z,23.67
2023-04-16T11:52:54.453Z,22.93
2023-04-16T11:55:21.878Z,23.40
2023-04-16T11:57:49.232Z,23.27
2023-04-16T12:00:22.996Z,24.47
2023-04-16T12:02:53.770Z,23.60
2023-04-16T12:05:34.033Z,22.90
2023-04-16T12:08:06.283Z,24.57
2023-04-16T12:10:35.780Z,20.33
2023-04-16T12:13:16.577Z,22.17
2023-04-16T12:15:53.287Z,22.13
2023-04-16T12:18:23.374Z,20.97
2023-04-16T12:20:53.515Z,22.03
2023-04-16T12:23:25.297Z,22.50
2023-04-16T12:25:52.628Z,22.80
2023-04-16T12:28:35.635Z,20.30
2023-04-16T12:31:03.373Z,21.57
2023-04-16T12:33:30.550Z,20.47
2023-04-16T12:35:57.956Z,20.30
2023-04-16T12:38:26.029Z,20.90
2023-04-16T12:40:56.950Z,20.57
2023-04-16T12:43:25.257Z,20.23
2023-04-16T12:45:52.155Z,20.90
2023-04-16T12:48:22.097Z,20.63
2023-04-16T12:50:49.315Z,20.70
2023-04-16T12:53:16.160Z,20.93
2023-04-16T12:55:42.985Z,20.90
2023-04-16T12:58:12.489Z,21.37
2023-04-16T13:00:40.717Z,21.03
2023-04-16T13:03:08.053Z,20.87
2023-04-16T13:05:35.399Z,20.43
2023-04-16T13:08:03.055Z,20.93
2023-04-16T13:10:30.353Z,22.07
2023-04-16T13:12:57.393Z,21.47
2023-04-16T13:15:24.182Z,20.40
2023-04-16T13:17:51.286Z,21.73
2023-04-16T13:20:18.464Z,21.27
2023-04-16T13:22:45.239Z,22.33
2023-04-16T13:25:12.319Z,22.50
2023-04-16T13:27:39.050Z,21.37
2023-04-16T13:30:06.543Z,20.70
2023-04-16T13:32:33.798Z,21.80
2023-04-16T13:35:00.917Z,21.83
2023-04-16T13:37:27.810Z,20.23
2023-04-16T13:39:55.090Z,20.30
2023-04-16T13:42:22.199Z,19.07
2023-04-16T13:44:53.170Z,20.30
2023-04-16T13:47:20.293Z,19.70
2023-04-16T13:49:47.627Z,19.40
2023-04-16T13:52:14.923Z,19.63
2023-04-16T13:54:42.275Z,20.13
2023-04-16T13:57:09.068Z,20.13
2023-04-16T13:59:36.392Z,18.83
2023-04-16T14:02:03.732Z,18.80
2023-04-16T14:04:31.256Z,18.53
2023-04-16T14:06:58.003Z,19.33
2023-04-16T14:09:25.067Z,18.40
2023-04-16T14:11:51.866Z,18.70
2023-04-16T14:14:19.109Z,18.20
2023-04-16T14:16:45.955Z,18.50
2023-04-16T14:19:14.076Z,17.40
2023-04-16T14:21:41.301Z,17.77
2023-04-16T14:24:09.271Z,17.60
2023-04-16T14:26:36.203Z,17.90
2023-04-16T14:29:03.180Z,18.20
2023-04-16T14:31:30.815Z,16.90
2023-04-16T14:33:57.751Z,17.43
2023-04-16T14:36:24.873Z,17.57
2023-04-16T14:38:51.786Z,17.93
2023-04-16T14:41:18.772Z,16.07
2023-04-16T14:43:46.130Z,16.20
2023-04-16T14:46:13.499Z,16.30
2023-04-16T14:48:40.367Z,16.73
2023-04-16T14:51:07.630Z,16.93
2023-04-16T14:53:36.194Z,17.37
2023-04-16T14:56:03.509Z,16.83
2023-04-16T14:58:30.515Z,17.03
2023-04-16T15:00:59.180Z,16.50
2023-04-16T15:03:26.232Z,15.97
2023-04-16T15:05:56.545Z,17.03
2023-04-16T15:08:24.523Z,17.23
2023-04-16T15:10:51.683Z,17.43
2023-04-16T15:13:19.644Z,17.33
2023-04-16T15:15:46.695Z,17.23
2023-04-16T15:18:13.960Z,16.47
2023-04-16T15:20:41.370Z,17.23
2023-04-16T15:23:08.169Z,17.10
2023-04-16T15:25:35.221Z,16.80
2023-04-16T15:28:02.919Z,16.60
2023-04-16T15:30:31.469Z,16.43
2023-04-16T15:33:01.083Z,16.77
2023-04-16T15:35:27.865Z,16.77
2023-04-16T15:37:55.400Z,16.30
2023-04-16T15:40:22.682Z,16.07
2023-04-16T15:42:49.513Z,16.07
2023-04-16T15:45:16.453Z,16.60
2023-04-16T15:47:45.748Z,16.50
2023-04-16T15:50:12.620Z,19.53
2023-04-16T15:52:40.295Z,16.40
2023-04-16T15:55:08.347Z,17.20
2023-04-16T15:57:35.309Z,16.07
2023-04-16T16:00:08.444Z,17.13
2023-04-16T16:02:38.776Z,18.40
2023-04-16T16:05:07.697Z,17.20
2023-04-16T16:07:34.593Z,16.77
2023-04-16T16:10:01.882Z,16.43
2023-04-16T16:12:29.640Z,16.43
2023-04-16T16:14:56.913Z,16.77
2023-04-16T16:17:24.189Z,15.87
2023-04-16T16:19:52.536Z,16.67
2023-04-16T16:22:20.694Z,16.03
2023-04-16T16:24:53.622Z,15.37
2023-04-16T16:27:21.395Z,15.27
2023-04-16T16:29:48.222Z,14.50
2023-04-16T16:32:16.442Z,16.20
2023-04-16T16:34:43.544Z,15.83
2023-04-16T16:37:10.353Z,15.73
2023-04-16T16:39:38.684Z,14.70
2023-04-16T16:42:06.251Z,15.50
2023-04-16T16:44:33.449Z,15.70
2023-04-16T16:47:00.460Z,16.10
2023-04-16T16:49:27.630Z,15.50
2023-04-16T16:51:54.434Z,15.83
2023-04-16T16:54:21.618Z,15.40
2023-04-16T16:56:48.607Z,15.77
2023-04-16T16:59:15.469Z,15.53
2023-04-16T17:01:45.170Z,15.20
2023-04-16T17:04:12.310Z,15.70
2023-04-16T17:06:42.066Z,15.87
2023-04-16T17:09:09.296Z,16.83
2023-04-16T17:11:36.818Z,16.80
2023-04-16T17:14:04.065Z,17.20
2023-04-16T17:16:31.015Z,15.73
2023-04-16T17:18:59.345Z,16.40
2023-04-16T17:21:26.113Z,18.60
2023-04-16T17:23:53.005Z,16.13
2023-04-16T17:26:22.858Z,17.23
2023-04-16T17:28:50.907Z,16.43
2023-04-16T17:31:18.215Z,17.23
2023-04-16T17:33:45.526Z,17.67
2023-04-16T17:36:12.714Z,17.10
2023-04-16T17:38:40.069Z,17.30
2023-04-16T17:41:07.097Z,16.93
2023-04-16T17:43:34.203Z,16.10
2023-04-16T17:46:01.358Z,17.87
2023-04-16T17:48:28.510Z,18.00
2023-04-16T17:50:55.393Z,17.27
2023-04-16T17:53:22.282Z,17.77
2023-04-16T17:55:54.670Z,17.80
2023-04-16T17:58:23.977Z,16.57
2023-04-16T18:00:52.048Z,18.10
2023-04-16T18:03:21.395Z,17.90
2023-04-16T18:05:49.709Z,18.73
2023-04-16T18:08:16.808Z,18.27
2023-04-16T18:10:44.150Z,18.33
2023-04-16T18:13:11.268Z,18.10
2023-04-16T18:15:38.744Z,19.53
2023-04-16T18:18:06.244Z,19.13
2023-04-16T18:20:33.941Z,17.80
2023-04-16T18:23:01.527Z,18.77
2023-04-16T18:25:34.585Z,18.47
2023-04-16T18:28:03.974Z,19.23
2023-04-16T18:30:31.001Z,18.17
2023-04-16T18:35:27.943Z,20.00
2023-04-16T18:37:54.889Z,20.07
2023-04-16T18:40:21.861Z,19.40
2023-04-16T18:42:51.436Z,19.53
2023-04-16T18:45:21.893Z,18.97
2023-04-16T18:47:50.411Z,19.13
2023-04-16T18:50:17.895Z,18.57
2023-04-16T18:52:44.850Z,18.37
2023-04-16T18:55:11.752Z,19.80
2023-04-16T18:57:38.936Z,18.67
2023-04-16T19:00:12.650Z,18.90
2023-04-16T19:02:40.853Z,18.97
2023-04-16T19:05:08.926Z,19.93
2023-04-16T19:07:36.473Z,20.03
2023-04-16T19:10:05.069Z,19.67
2023-04-16T19:12:32.433Z,19.90
2023-04-16T19:14:59.667Z,20.83
2023-04-16T19:17:26.860Z,20.80
2023-04-16T19:19:53.753Z,21.37
2023-04-16T19:22:20.996Z,20.57
2023-04-16T19:24:49.455Z,20.30
2023-04-16T19:27:16.678Z,20.53
2023-04-16T19:29:43.764Z,20.57
2023-04-16T19:32:12.794Z,20.13
2023-04-16T19:34:40.971Z,19.70
2023-04-16T19:37:07.919Z,19.60
2023-04-16T19:39:38.167Z,20.30
2023-04-16T19:42:05.473Z,19.50
2023-04-16T19:44:32.489Z,20.53
2023-04-16T19:46:59.769Z,19.07
2023-04-16T19:49:26.770Z,18.13
2023-04-16T19:51:53.894Z,19.17
2023-04-16T19:54:20.898Z,19.80
2023-04-16T19:56:51.870Z,19.43
2023-04-16T19:59:19.340Z,19.37
2023-04-16T20:01:46.725Z,18.37
2023-04-16T20:04:14.063Z,19.43
2023-04-16T20:06:41.171Z,19.27
2023-04-16T20:09:08.160Z,18.63
2023-04-16T20:11:36.182Z,18.80
2023-04-16T20:14:03.350Z,17.33
2023-04-16T20:16:31.892Z,18.23
2023-04-16T20:19:04.077Z,18.63
2023-04-16T20:21:32.337Z,19.43
2023-04-16T20:24:03.080Z,18.70
2023-04-16T20:26:34.173Z,19.17
2023-04-16T20:29:01.372Z,19.20
2023-04-16T20:31:35.915Z,18.80
2023-04-16T20:34:03.124Z,19.73
2023-04-16T20:36:30.646Z,18.63
2023-04-16T20:38:59.723Z,19.13
2023-04-16T20:41:27.409Z,18.33
2023-04-16T20:43:54.300Z,18.50
2023-04-16T20:46:26.122Z,19.63
2023-04-16T20:48:53.018Z,19.33
2023-04-16T20:51:20.008Z,19.43
2023-04-16T20:53:47.494Z,18.13
2023-04-16T20:56:15.060Z,18.37
2023-04-16T20:58:42.770Z,18.60
2023-04-16T21:01:10.122Z,17.63
2023-04-16T21:03:39.756Z,17.47
2023-04-16T21:06:06.866Z,17.53
2023-04-16T21:08:33.958Z,17.97
2023-04-16T21:11:01.079Z,18.23
2023-04-16T21:13:28.100Z,18.30
2023-04-16T21:15:55.183Z,16.47
2023-04-16T21:18:22.178Z,17.83
2023-04-16T21:20:49.361Z,16.50
2023-04-16T21:23:16.545Z,16.70
2023-04-16T21:25:43.594Z,16.60
2023-04-16T21:28:10.756Z,16.73
2023-04-16T21:30:38.463Z,16.63
2023-04-16T21:33:05.762Z,16.30
2023-04-16T21:35:33.518Z,16.67
2023-04-16T21:38:00.666Z,16.10
2023-04-16T21:40:27.807Z,16.37
2023-04-16T21:42:55.235Z,16.50
2023-04-16T21:45:22.255Z,16.50
2023-04-16T21:47:49.257Z,17.10
2023-04-16T21:50:16.587Z,17.17
2023-04-16T21:52:46.294Z,16.70
2023-04-16T21:55:14.326Z,16.60
2023-04-16T21:57:41.466Z,17.30
2023-04-16T22:00:14.874Z,17.00
2023-04-16T22:02:42.718Z,18.07
2023-04-16T22:05:11.605Z,17.57
2023-04-16T22:07:39.006Z,17.80
2023-04-16T22:10:06.819Z,17.70
2023-04-16T22:12:33.625Z,17.50
2023-04-16T22:15:03.119Z,17.73
2023-04-16T22:17:30.427Z,17.30
2023-04-16T22:20:00.776Z,17.80
2023-04-16T22:22:27.882Z,17.63
2023-04-16T22:24:54.969Z,18.40
2023-04-16T22:27:22.597Z,17.60
2023-04-16T22:29:49.436Z,17.83
2023-04-16T22:32:16.490Z,18.17
2023-04-16T22:34:43.945Z,18.97
2023-04-16T22:37:10.860Z,17.20
2023-04-16T22:39:37.731Z,17.03
2023-04-16T22:42:04.848Z,17.10
2023-04-16T22:44:31.712Z,16.13
2023-04-16T22:46:58.507Z,17.40
2023-04-16T22:49:26.493Z,16.07
2023-04-16T22:51:53.325Z,16.30
2023-04-16T22:54:20.348Z,16.43
2023-04-16T22:56:48.779Z,16.63
2023-04-16T22:59:15.662Z,16.50
2023-04-16T23:01:43.114Z,15.97
2023-04-16T23:04:10.144Z,16.57
2023-04-16T23:06:37.397Z,15.90
2023-04-16T23:09:05.330Z,16.77
2023-04-16T23:11:32.167Z,16.10
2023-04-16T23:13:59.014Z,16.63
2023-04-16T23:16:27.363Z,16.27
2023-04-16T23:18:54.444Z,16.43
2023-04-16T23:21:21.403Z,17.13
2023-04-16T23:23:48.921Z,17.67
2023-04-16T23:26:16.211Z,17.47
2023-04-16T23:28:43.023Z,17.83
2023-04-16T23:31:10.130Z,18.17
2023-04-16T23:33:36.909Z,16.53
2023-04-16T23:36:04.087Z,17.77
2023-04-16T23:38:31.702Z,17.57
2023-04-16T23:40:58.522Z,18.57
2023-04-16T23:43:25.587Z,18.10
2023-04-16T23:45:52.814Z,17.53
2023-04-16T23:48:19.985Z,18.03
2023-04-16T23:50:46.921Z,17.37
2023-04-16T23:53:13.704Z,17.83
2023-04-16T23:55:40.659Z,18.37
2023-04-16T23:58:07.717Z,19.27
